RYR737 LZKZ-LKPR
Flight info
| Callsign | RYR737 |
|---|---|
| Flight time | 1h 14m |
| Altitude | 30000 |
| Route | TAKOS2C TAKOS DCT VALPI DCT TUMKA DCT VLM VLM6T |
| Aircraft | B738/M-SDE2E3FGHIRWXY/LB1 |
Departure
| Time | 2026-04-18 05:48 |
|---|---|
| Airport | Košice International Airport (LZKZ) |
Arrival
| Time | 2026-04-18 07:03 |
|---|---|
| Airport | Václav Havel Airport Prague (LKPR) |
| Time | Latitude | Longitude | Altitude | Speed | Heading |
|---|---|---|---|---|---|
| 2026-04-18 05:13 | 48.67192 | 21.24065 | 760 ft | 0 kts | 271° |
| 2026-04-18 05:46 | 48.67212 | 21.24018 | 758 ft | 7 kts | 330° |
| 2026-04-18 05:46 | 48.67266 | 21.24035 | 760 ft | 12 kts | 52° |
| 2026-04-18 05:46 | 48.67203 | 21.24138 | 756 ft | 20 kts | 187° |
| 2026-04-18 05:46 | 48.67093 | 21.24003 | 757 ft | 22 kts | 197° |
| 2026-04-18 05:47 | 48.66947 | 21.24035 | 755 ft | 21 kts | 168° |
| 2026-04-18 05:47 | 48.66814 | 21.24105 | 754 ft | 20 kts | 126° |
| 2026-04-18 05:47 | 48.66811 | 21.24300 | 758 ft | 20 kts | 44° |
| 2026-04-18 05:47 | 48.66852 | 21.24328 | 761 ft | 0 kts | 16° |
| 2026-04-18 05:48 | 48.66860 | 21.24332 | 762 ft | 16 kts | 17° |
| 2026-04-18 05:48 | 48.67337 | 21.24487 | 754 ft | 121 kts | 12° |
| 2026-04-18 05:48 | 48.68370 | 21.24856 | 1250 ft | 165 kts | 14° |
| 2026-04-18 05:48 | 48.69549 | 21.25295 | 2250 ft | 192 kts | 12° |
| 2026-04-18 05:49 | 48.70841 | 21.25735 | 3528 ft | 189 kts | 13° |
| 2026-04-18 05:49 | 48.72130 | 21.26175 | 4537 ft | 191 kts | 13° |
| 2026-04-18 05:49 | 48.73440 | 21.26630 | 5271 ft | 195 kts | 14° |
| 2026-04-18 05:49 | 48.74782 | 21.27097 | 5866 ft | 200 kts | 13° |
| 2026-04-18 05:50 | 48.76173 | 21.27108 | 6537 ft | 206 kts | 347° |
| 2026-04-18 05:50 | 48.77423 | 21.26021 | 7017 ft | 222 kts | 319° |
| 2026-04-18 05:50 | 48.78245 | 21.23871 | 7268 ft | 249 kts | 292° |
| 2026-04-18 05:50 | 48.78683 | 21.21286 | 7750 ft | 257 kts | 287° |
| 2026-04-18 05:51 | 48.79062 | 21.18614 | 8344 ft | 260 kts | 286° |
| 2026-04-18 05:51 | 48.79449 | 21.15932 | 8921 ft | 261 kts | 287° |
| 2026-04-18 05:51 | 48.79849 | 21.13225 | 9489 ft | 264 kts | 287° |
| 2026-04-18 05:51 | 48.80216 | 21.10484 | 10045 ft | 268 kts | 278° |
| 2026-04-18 05:52 | 48.79937 | 21.07648 | 10167 ft | 277 kts | 253° |
| 2026-04-18 05:52 | 48.79231 | 21.04900 | 10199 ft | 281 kts | 251° |
| 2026-04-18 05:52 | 48.78491 | 21.02175 | 10198 ft | 279 kts | 250° |
| 2026-04-18 05:52 | 48.77750 | 20.99449 | 10161 ft | 280 kts | 250° |
| 2026-04-18 05:53 | 48.76999 | 20.96660 | 10191 ft | 295 kts | 251° |
| 2026-04-18 05:53 | 48.76218 | 20.93729 | 10160 ft | 303 kts | 251° |
| 2026-04-18 05:53 | 48.75427 | 20.90756 | 10193 ft | 303 kts | 251° |
| 2026-04-18 05:53 | 48.74642 | 20.87803 | 10199 ft | 302 kts | 251° |
| 2026-04-18 05:54 | 48.73858 | 20.84849 | 10202 ft | 302 kts | 251° |
| 2026-04-18 05:54 | 48.73077 | 20.81900 | 10199 ft | 302 kts | 251° |
| 2026-04-18 05:54 | 48.72300 | 20.78979 | 10197 ft | 302 kts | 251° |
| 2026-04-18 05:54 | 48.71514 | 20.76022 | 10199 ft | 302 kts | 251° |
| 2026-04-18 05:55 | 48.70728 | 20.73060 | 10191 ft | 304 kts | 251° |
| 2026-04-18 05:55 | 48.69941 | 20.70102 | 10198 ft | 303 kts | 251° |
| 2026-04-18 05:55 | 48.69150 | 20.67127 | 10201 ft | 305 kts | 251° |
| 2026-04-18 05:55 | 48.68356 | 20.64146 | 10191 ft | 305 kts | 250° |
| 2026-04-18 05:56 | 48.67563 | 20.61175 | 10200 ft | 304 kts | 250° |
| 2026-04-18 05:56 | 48.66773 | 20.58216 | 10197 ft | 303 kts | 250° |
| 2026-04-18 05:56 | 48.65985 | 20.55267 | 10179 ft | 301 kts | 250° |
| 2026-04-18 05:56 | 48.65209 | 20.52369 | 10191 ft | 300 kts | 250° |
| 2026-04-18 05:57 | 48.63644 | 20.46534 | 10191 ft | 299 kts | 251° |
| 2026-04-18 05:57 | 48.62860 | 20.43613 | 10195 ft | 300 kts | 250° |
| 2026-04-18 05:57 | 48.62075 | 20.40693 | 10191 ft | 300 kts | 250° |
| 2026-04-18 05:58 | 48.61290 | 20.37771 | 10191 ft | 299 kts | 250° |
| 2026-04-18 05:58 | 48.60506 | 20.34864 | 10193 ft | 299 kts | 250° |
| 2026-04-18 05:58 | 48.59720 | 20.31956 | 10196 ft | 300 kts | 250° |
| 2026-04-18 05:58 | 48.58928 | 20.29003 | 10618 ft | 306 kts | 253° |
| 2026-04-18 05:59 | 48.58595 | 20.25886 | 11507 ft | 298 kts | 276° |
| 2026-04-18 05:59 | 48.58999 | 20.22855 | 12400 ft | 294 kts | 290° |
| 2026-04-18 05:59 | 48.59587 | 20.19875 | 13234 ft | 298 kts | 291° |
| 2026-04-18 05:59 | 48.60211 | 20.16867 | 14080 ft | 302 kts | 291° |
| 2026-04-18 06:00 | 48.60844 | 20.13826 | 14895 ft | 304 kts | 291° |
| 2026-04-18 06:00 | 48.61479 | 20.10758 | 15694 ft | 307 kts | 292° |
| 2026-04-18 06:00 | 48.62107 | 20.07696 | 16505 ft | 311 kts | 291° |
| 2026-04-18 06:00 | 48.62748 | 20.04549 | 17320 ft | 315 kts | 291° |
| 2026-04-18 06:01 | 48.63391 | 20.01368 | 18154 ft | 319 kts | 291° |
| 2026-04-18 06:01 | 48.64040 | 19.98142 | 18901 ft | 322 kts | 291° |
| 2026-04-18 06:01 | 48.64693 | 19.94881 | 19631 ft | 325 kts | 291° |
| 2026-04-18 06:01 | 48.65351 | 19.91587 | 20359 ft | 328 kts | 291° |
| 2026-04-18 06:02 | 48.66011 | 19.88270 | 21069 ft | 331 kts | 291° |
| 2026-04-18 06:02 | 48.66677 | 19.84916 | 21773 ft | 335 kts | 291° |
| 2026-04-18 06:02 | 48.67348 | 19.81528 | 22469 ft | 338 kts | 291° |
| 2026-04-18 06:02 | 48.68026 | 19.78101 | 23188 ft | 341 kts | 291° |
| 2026-04-18 06:03 | 48.68708 | 19.74648 | 23843 ft | 344 kts | 291° |
| 2026-04-18 06:03 | 48.69395 | 19.71155 | 24414 ft | 348 kts | 291° |
| 2026-04-18 06:03 | 48.70088 | 19.67634 | 24981 ft | 351 kts | 291° |
| 2026-04-18 06:03 | 48.70786 | 19.64081 | 25543 ft | 353 kts | 291° |
| 2026-04-18 06:04 | 48.71486 | 19.60505 | 26129 ft | 355 kts | 291° |
| 2026-04-18 06:04 | 48.72188 | 19.56916 | 26793 ft | 354 kts | 292° |
| 2026-04-18 06:04 | 48.72880 | 19.53359 | 27561 ft | 350 kts | 292° |
| 2026-04-18 06:04 | 48.73563 | 19.49839 | 28321 ft | 346 kts | 292° |
| 2026-04-18 06:05 | 48.74240 | 19.46353 | 29024 ft | 344 kts | 292° |
| 2026-04-18 06:05 | 48.74905 | 19.42922 | 29659 ft | 343 kts | 292° |
| 2026-04-18 06:05 | 48.75579 | 19.39452 | 30211 ft | 345 kts | 292° |
| 2026-04-18 06:06 | 48.76941 | 19.32420 | 30193 ft | 345 kts | 292° |
| 2026-04-18 06:06 | 48.78271 | 19.25497 | 30193 ft | 341 kts | 292° |
| 2026-04-18 06:07 | 48.79598 | 19.18589 | 30205 ft | 342 kts | 292° |
| 2026-04-18 06:07 | 48.80933 | 19.11617 | 30201 ft | 344 kts | 292° |
| 2026-04-18 06:08 | 48.82263 | 19.04630 | 30187 ft | 344 kts | 293° |
| 2026-04-18 06:08 | 48.83584 | 18.97662 | 30196 ft | 342 kts | 293° |
| 2026-04-18 06:09 | 48.84897 | 18.90719 | 30192 ft | 341 kts | 293° |
| 2026-04-18 06:09 | 48.86192 | 18.83840 | 30197 ft | 340 kts | 294° |
| 2026-04-18 06:10 | 48.87484 | 18.76952 | 30199 ft | 338 kts | 294° |
| 2026-04-18 06:10 | 48.88768 | 18.70086 | 30198 ft | 336 kts | 294° |
| 2026-04-18 06:11 | 48.90042 | 18.63250 | 30208 ft | 336 kts | 294° |
| 2026-04-18 06:11 | 48.91305 | 18.56452 | 30197 ft | 336 kts | 294° |
| 2026-04-18 06:12 | 48.92567 | 18.49624 | 30201 ft | 335 kts | 294° |
| 2026-04-18 06:12 | 48.93827 | 18.42786 | 30208 ft | 335 kts | 295° |
| 2026-04-18 06:13 | 48.95083 | 18.35944 | 30208 ft | 336 kts | 295° |
| 2026-04-18 06:13 | 48.96342 | 18.29063 | 30212 ft | 337 kts | 295° |
| 2026-04-18 06:14 | 48.97586 | 18.22232 | 30199 ft | 337 kts | 295° |
| 2026-04-18 06:14 | 48.98831 | 18.15368 | 30204 ft | 336 kts | 295° |
| 2026-04-18 06:15 | 49.00071 | 18.08512 | 30204 ft | 336 kts | 294° |
| 2026-04-18 06:15 | 49.01307 | 18.01655 | 30201 ft | 335 kts | 295° |
| 2026-04-18 06:16 | 49.02536 | 17.94807 | 30212 ft | 334 kts | 295° |
| 2026-04-18 06:16 | 49.03634 | 17.89179 | 30215 ft | 333 kts | 296° |
| 2026-04-18 06:17 | 49.05006 | 17.82417 | 30214 ft | 334 kts | 296° |
| 2026-04-18 06:17 | 49.06372 | 17.75643 | 30218 ft | 334 kts | 296° |
| 2026-04-18 06:18 | 49.07728 | 17.68857 | 30217 ft | 335 kts | 296° |
| 2026-04-18 06:18 | 49.09081 | 17.62050 | 30225 ft | 335 kts | 296° |
| 2026-04-18 06:19 | 49.10422 | 17.55273 | 30225 ft | 336 kts | 295° |
| 2026-04-18 06:19 | 49.11770 | 17.48426 | 30226 ft | 336 kts | 295° |
| 2026-04-18 06:20 | 49.13114 | 17.41579 | 30240 ft | 337 kts | 295° |
| 2026-04-18 06:20 | 49.14438 | 17.34792 | 29945 ft | 329 kts | 295° |
| 2026-04-18 06:20 | 49.15090 | 17.31445 | 29516 ft | 329 kts | 295° |
| 2026-04-18 06:21 | 49.15744 | 17.28090 | 29029 ft | 330 kts | 295° |
| 2026-04-18 06:21 | 49.16398 | 17.24732 | 28595 ft | 329 kts | 295° |
| 2026-04-18 06:21 | 49.17048 | 17.21381 | 28218 ft | 327 kts | 294° |
| 2026-04-18 06:21 | 49.17691 | 17.18058 | 27859 ft | 325 kts | 294° |
| 2026-04-18 06:22 | 49.18329 | 17.14754 | 27501 ft | 323 kts | 294° |
| 2026-04-18 06:22 | 49.18963 | 17.11470 | 27127 ft | 321 kts | 294° |
| 2026-04-18 06:22 | 49.19593 | 17.08199 | 26769 ft | 320 kts | 294° |
| 2026-04-18 06:22 | 49.20219 | 17.04949 | 26416 ft | 318 kts | 293° |
| 2026-04-18 06:23 | 49.20841 | 17.01709 | 26058 ft | 317 kts | 293° |
| 2026-04-18 06:23 | 49.21455 | 16.98509 | 25718 ft | 316 kts | 293° |
| 2026-04-18 06:23 | 49.22070 | 16.95294 | 25401 ft | 314 kts | 293° |
| 2026-04-18 06:23 | 49.22683 | 16.92090 | 25071 ft | 313 kts | 292° |
| 2026-04-18 06:24 | 49.23290 | 16.88907 | 24742 ft | 311 kts | 292° |
| 2026-04-18 06:24 | 49.23894 | 16.85736 | 24431 ft | 310 kts | 292° |
| 2026-04-18 06:24 | 49.24494 | 16.82581 | 24112 ft | 308 kts | 292° |
| 2026-04-18 06:24 | 49.25093 | 16.79427 | 23803 ft | 307 kts | 292° |
| 2026-04-18 06:25 | 49.25686 | 16.76295 | 23439 ft | 306 kts | 291° |
| 2026-04-18 06:25 | 49.26278 | 16.73167 | 23080 ft | 304 kts | 291° |
| 2026-04-18 06:25 | 49.26865 | 16.70058 | 22718 ft | 303 kts | 291° |
| 2026-04-18 06:25 | 49.27449 | 16.66962 | 22372 ft | 302 kts | 291° |
| 2026-04-18 06:26 | 49.28027 | 16.63888 | 22015 ft | 301 kts | 291° |
| 2026-04-18 06:26 | 49.28606 | 16.60807 | 21656 ft | 300 kts | 291° |
| 2026-04-18 06:26 | 49.29173 | 16.57785 | 21339 ft | 298 kts | 291° |
| 2026-04-18 06:26 | 49.29752 | 16.54694 | 21003 ft | 297 kts | 291° |
| 2026-04-18 06:27 | 49.30320 | 16.51661 | 20679 ft | 296 kts | 291° |
| 2026-04-18 06:27 | 49.30885 | 16.48634 | 20359 ft | 295 kts | 290° |
| 2026-04-18 06:27 | 49.31441 | 16.45652 | 20046 ft | 294 kts | 290° |
| 2026-04-18 06:27 | 49.32001 | 16.42643 | 19736 ft | 293 kts | 290° |
| 2026-04-18 06:28 | 49.32565 | 16.39604 | 19421 ft | 292 kts | 290° |
| 2026-04-18 06:28 | 49.33121 | 16.36607 | 19104 ft | 292 kts | 290° |
| 2026-04-18 06:28 | 49.33674 | 16.33621 | 18804 ft | 291 kts | 290° |
| 2026-04-18 06:28 | 49.34224 | 16.30645 | 18523 ft | 290 kts | 290° |
| 2026-04-18 06:29 | 49.34772 | 16.27681 | 18198 ft | 289 kts | 290° |
| 2026-04-18 06:29 | 49.35312 | 16.24752 | 17874 ft | 288 kts | 290° |
| 2026-04-18 06:29 | 49.35854 | 16.21805 | 17560 ft | 286 kts | 289° |
| 2026-04-18 06:29 | 49.36393 | 16.18869 | 17239 ft | 285 kts | 289° |
| 2026-04-18 06:30 | 49.36930 | 16.15941 | 16924 ft | 284 kts | 289° |
| 2026-04-18 06:30 | 49.37463 | 16.13028 | 16630 ft | 283 kts | 289° |
| 2026-04-18 06:30 | 49.37994 | 16.10123 | 16327 ft | 282 kts | 289° |
| 2026-04-18 06:30 | 49.38522 | 16.07234 | 16035 ft | 280 kts | 289° |
| 2026-04-18 06:31 | 49.39047 | 16.04359 | 15745 ft | 279 kts | 289° |
| 2026-04-18 06:31 | 49.39569 | 16.01492 | 15452 ft | 278 kts | 288° |
| 2026-04-18 06:31 | 49.40088 | 15.98631 | 15156 ft | 278 kts | 288° |
| 2026-04-18 06:31 | 49.40606 | 15.95787 | 14884 ft | 276 kts | 289° |
| 2026-04-18 06:32 | 49.41308 | 15.93063 | 14588 ft | 273 kts | 299° |
| 2026-04-18 06:32 | 49.42186 | 15.90486 | 14305 ft | 272 kts | 300° |
| 2026-04-18 06:32 | 49.43061 | 15.87958 | 14024 ft | 271 kts | 300° |
| 2026-04-18 06:32 | 49.43958 | 15.85365 | 13719 ft | 270 kts | 300° |
| 2026-04-18 06:33 | 49.44823 | 15.82856 | 13430 ft | 268 kts | 300° |
| 2026-04-18 06:33 | 49.45691 | 15.80326 | 13135 ft | 267 kts | 300° |
| 2026-04-18 06:33 | 49.46554 | 15.77804 | 12853 ft | 266 kts | 300° |
| 2026-04-18 06:33 | 49.47411 | 15.75290 | 12556 ft | 265 kts | 300° |
| 2026-04-18 06:34 | 49.48257 | 15.72805 | 12376 ft | 259 kts | 300° |
| 2026-04-18 06:34 | 49.49083 | 15.70369 | 12222 ft | 254 kts | 300° |
| 2026-04-18 06:34 | 49.49898 | 15.67966 | 11963 ft | 253 kts | 300° |
| 2026-04-18 06:34 | 49.50712 | 15.65563 | 11697 ft | 252 kts | 300° |
| 2026-04-18 06:35 | 49.51522 | 15.63168 | 11432 ft | 251 kts | 300° |
| 2026-04-18 06:35 | 49.52327 | 15.60790 | 11175 ft | 250 kts | 300° |
| 2026-04-18 06:35 | 49.53130 | 15.58412 | 10913 ft | 250 kts | 300° |
| 2026-04-18 06:35 | 49.53929 | 15.56048 | 10668 ft | 249 kts | 300° |
| 2026-04-18 06:36 | 49.54717 | 15.53712 | 10424 ft | 248 kts | 300° |
| 2026-04-18 06:36 | 49.55510 | 15.51353 | 10195 ft | 247 kts | 300° |
| 2026-04-18 06:36 | 49.56299 | 15.48999 | 9938 ft | 247 kts | 300° |
| 2026-04-18 06:36 | 49.57087 | 15.46656 | 9692 ft | 245 kts | 300° |
| 2026-04-18 06:37 | 49.57869 | 15.44328 | 9438 ft | 245 kts | 300° |
| 2026-04-18 06:37 | 49.58649 | 15.42004 | 9183 ft | 244 kts | 300° |
| 2026-04-18 06:37 | 49.59427 | 15.39683 | 8903 ft | 243 kts | 300° |
| 2026-04-18 06:37 | 49.60201 | 15.37371 | 8674 ft | 242 kts | 300° |
| 2026-04-18 06:38 | 49.60971 | 15.35068 | 8429 ft | 241 kts | 299° |
| 2026-04-18 06:38 | 49.61737 | 15.32771 | 8189 ft | 240 kts | 299° |
| 2026-04-18 06:38 | 49.62500 | 15.30487 | 7919 ft | 240 kts | 299° |
| 2026-04-18 06:38 | 49.63263 | 15.28207 | 7707 ft | 239 kts | 299° |
| 2026-04-18 06:39 | 49.64021 | 15.25929 | 7460 ft | 237 kts | 299° |
| 2026-04-18 06:39 | 49.64776 | 15.23665 | 7229 ft | 237 kts | 299° |
| 2026-04-18 06:39 | 49.65515 | 15.21437 | 7002 ft | 236 kts | 298° |
| 2026-04-18 06:39 | 49.66265 | 15.19183 | 6800 ft | 236 kts | 299° |
| 2026-04-18 06:40 | 49.67009 | 15.16943 | 6567 ft | 234 kts | 298° |
| 2026-04-18 06:40 | 49.67751 | 15.14707 | 6284 ft | 234 kts | 298° |
| 2026-04-18 06:40 | 49.68495 | 15.12464 | 6007 ft | 234 kts | 298° |
| 2026-04-18 06:40 | 49.69234 | 15.10230 | 5747 ft | 234 kts | 298° |
| 2026-04-18 06:41 | 49.69974 | 15.07998 | 5513 ft | 233 kts | 298° |
| 2026-04-18 06:41 | 49.70770 | 15.05821 | 5348 ft | 233 kts | 306° |
| 2026-04-18 06:41 | 49.71762 | 15.03833 | 5125 ft | 232 kts | 309° |
| 2026-04-18 06:41 | 49.72772 | 15.01885 | 4914 ft | 233 kts | 309° |
| 2026-04-18 06:42 | 49.73772 | 14.99924 | 4696 ft | 232 kts | 308° |
| 2026-04-18 06:42 | 49.74750 | 14.97977 | 4517 ft | 232 kts | 308° |
| 2026-04-18 06:42 | 49.75745 | 14.96038 | 4332 ft | 230 kts | 314° |
| 2026-04-18 06:42 | 49.77055 | 14.94632 | 4246 ft | 229 kts | 335° |
| 2026-04-18 06:43 | 49.78526 | 14.93691 | 4224 ft | 230 kts | 339° |
| 2026-04-18 06:43 | 49.80021 | 14.92798 | 4214 ft | 230 kts | 339° |
| 2026-04-18 06:43 | 49.81510 | 14.91898 | 4216 ft | 229 kts | 339° |
| 2026-04-18 06:43 | 49.82994 | 14.90986 | 4216 ft | 230 kts | 338° |
| 2026-04-18 06:44 | 49.84483 | 14.90066 | 4215 ft | 230 kts | 338° |
| 2026-04-18 06:44 | 49.85969 | 14.89146 | 4217 ft | 231 kts | 338° |
| 2026-04-18 06:44 | 49.87466 | 14.88218 | 4223 ft | 231 kts | 338° |
| 2026-04-18 06:44 | 49.88953 | 14.87290 | 4220 ft | 231 kts | 338° |
| 2026-04-18 06:45 | 49.90444 | 14.86361 | 4220 ft | 230 kts | 338° |
| 2026-04-18 06:45 | 49.91928 | 14.85435 | 4220 ft | 230 kts | 338° |
| 2026-04-18 06:45 | 49.93417 | 14.84505 | 4220 ft | 229 kts | 338° |
| 2026-04-18 06:45 | 49.94898 | 14.83580 | 4223 ft | 229 kts | 338° |
| 2026-04-18 06:46 | 49.96355 | 14.82669 | 4225 ft | 229 kts | 338° |
| 2026-04-18 06:46 | 49.97839 | 14.81740 | 4229 ft | 230 kts | 338° |
| 2026-04-18 06:46 | 49.99326 | 14.80809 | 4244 ft | 230 kts | 338° |
| 2026-04-18 06:46 | 50.00818 | 14.79871 | 4231 ft | 231 kts | 338° |
| 2026-04-18 06:47 | 50.02310 | 14.78938 | 4244 ft | 232 kts | 338° |
| 2026-04-18 06:47 | 50.03814 | 14.77995 | 4230 ft | 234 kts | 338° |
| 2026-04-18 06:47 | 50.05313 | 14.77016 | 4234 ft | 234 kts | 331° |
| 2026-04-18 06:47 | 50.06438 | 14.75286 | 4223 ft | 224 kts | 297° |
| 2026-04-18 06:48 | 50.06817 | 14.73034 | 4238 ft | 211 kts | 272° |
| 2026-04-18 06:48 | 50.06781 | 14.70784 | 4226 ft | 206 kts | 266° |
| 2026-04-18 06:48 | 50.06670 | 14.68557 | 4243 ft | 207 kts | 266° |
| 2026-04-18 06:48 | 50.06551 | 14.66305 | 4240 ft | 211 kts | 266° |
| 2026-04-18 06:49 | 50.06434 | 14.64020 | 4247 ft | 214 kts | 266° |
| 2026-04-18 06:49 | 50.06318 | 14.61706 | 4238 ft | 215 kts | 266° |
| 2026-04-18 06:49 | 50.06205 | 14.59383 | 4243 ft | 216 kts | 266° |
| 2026-04-18 06:49 | 50.06092 | 14.57049 | 4239 ft | 216 kts | 266° |
| 2026-04-18 06:50 | 50.05980 | 14.54735 | 4228 ft | 212 kts | 266° |
| 2026-04-18 06:50 | 50.05872 | 14.52468 | 4226 ft | 209 kts | 266° |
| 2026-04-18 06:50 | 50.05764 | 14.50212 | 4238 ft | 210 kts | 266° |
| 2026-04-18 06:50 | 50.05656 | 14.47943 | 4246 ft | 211 kts | 266° |
| 2026-04-18 06:51 | 50.05548 | 14.45650 | 4243 ft | 212 kts | 266° |
| 2026-04-18 06:51 | 50.05441 | 14.43382 | 4247 ft | 214 kts | 266° |
| 2026-04-18 06:51 | 50.05329 | 14.41062 | 4239 ft | 216 kts | 266° |
| 2026-04-18 06:51 | 50.05216 | 14.38732 | 4240 ft | 216 kts | 266° |
| 2026-04-18 06:52 | 50.05088 | 14.36430 | 4239 ft | 213 kts | 259° |
| 2026-04-18 06:52 | 50.04542 | 14.34315 | 4251 ft | 210 kts | 244° |
| 2026-04-18 06:52 | 50.03902 | 14.32265 | 4238 ft | 211 kts | 245° |
| 2026-04-18 06:52 | 50.03278 | 14.30194 | 4230 ft | 210 kts | 245° |
| 2026-04-18 06:53 | 50.02661 | 14.28139 | 4225 ft | 209 kts | 245° |
| 2026-04-18 06:53 | 50.02050 | 14.26100 | 4238 ft | 207 kts | 245° |
| 2026-04-18 06:53 | 50.01440 | 14.24067 | 4238 ft | 207 kts | 245° |
| 2026-04-18 06:53 | 50.00832 | 14.22040 | 4243 ft | 207 kts | 245° |
| 2026-04-18 06:54 | 50.00217 | 14.20005 | 4234 ft | 209 kts | 245° |
| 2026-04-18 06:54 | 49.99606 | 14.17986 | 4231 ft | 209 kts | 245° |
| 2026-04-18 06:54 | 49.98987 | 14.15939 | 4236 ft | 209 kts | 245° |
| 2026-04-18 06:54 | 49.98365 | 14.13888 | 4241 ft | 211 kts | 245° |
| 2026-04-18 06:55 | 49.97743 | 14.11817 | 4239 ft | 211 kts | 245° |
| 2026-04-18 06:55 | 49.97116 | 14.09747 | 4230 ft | 212 kts | 245° |
| 2026-04-18 06:55 | 49.96485 | 14.07667 | 4244 ft | 214 kts | 245° |
| 2026-04-18 06:55 | 49.95845 | 14.05559 | 4233 ft | 217 kts | 245° |
| 2026-04-18 06:56 | 49.95205 | 14.03447 | 4231 ft | 214 kts | 245° |
| 2026-04-18 06:56 | 49.94580 | 14.01372 | 4225 ft | 210 kts | 245° |
| 2026-04-18 06:56 | 49.93963 | 13.99317 | 4223 ft | 210 kts | 245° |
| 2026-04-18 06:56 | 49.93463 | 13.97186 | 4210 ft | 211 kts | 265° |
| 2026-04-18 06:57 | 49.93745 | 13.95000 | 4223 ft | 211 kts | 301° |
| 2026-04-18 06:57 | 49.96283 | 13.92937 | 4216 ft | 219 kts | 4° |
| 2026-04-18 06:57 | 49.97693 | 13.93742 | 4224 ft | 217 kts | 38° |
| 2026-04-18 06:58 | 49.98719 | 13.95388 | 4215 ft | 214 kts | 49° |
| 2026-04-18 06:58 | 49.99661 | 13.97132 | 4227 ft | 209 kts | 50° |
| 2026-04-18 06:58 | 50.00575 | 13.98845 | 4234 ft | 199 kts | 50° |
| 2026-04-18 06:58 | 50.01439 | 14.00471 | 4223 ft | 192 kts | 50° |
| 2026-04-18 06:59 | 50.02279 | 14.02057 | 4223 ft | 188 kts | 50° |
| 2026-04-18 06:59 | 50.03106 | 14.03620 | 4223 ft | 187 kts | 50° |
| 2026-04-18 06:59 | 50.03859 | 14.05263 | 4224 ft | 187 kts | 61° |
| 2026-04-18 06:59 | 50.04479 | 14.07060 | 4246 ft | 192 kts | 60° |
| 2026-04-18 07:00 | 50.05122 | 14.08902 | 4230 ft | 193 kts | 60° |
| 2026-04-18 07:00 | 50.05759 | 14.10712 | 4242 ft | 188 kts | 62° |
| 2026-04-18 07:00 | 50.06372 | 14.12441 | 4237 ft | 176 kts | 61° |
| 2026-04-18 07:00 | 50.06932 | 14.14039 | 4244 ft | 162 kts | 61° |
| 2026-04-18 07:01 | 50.07474 | 14.15527 | 4288 ft | 144 kts | 59° |
| 2026-04-18 07:01 | 50.07901 | 14.16645 | 4506 ft | 119 kts | 57° |
| 2026-04-18 07:01 | 50.08209 | 14.17409 | 4106 ft | 136 kts | 56° |
| 2026-04-18 07:01 | 50.08990 | 14.19074 | 3318 ft | 147 kts | 55° |
| 2026-04-18 07:02 | 50.09593 | 14.20502 | 2502 ft | 160 kts | 62° |
| 2026-04-18 07:02 | 50.10055 | 14.22076 | 1713 ft | 163 kts | 69° |
| 2026-04-18 07:02 | 50.10339 | 14.23127 | 1403 ft | 153 kts | 67° |
| 2026-04-18 07:02 | 50.10758 | 14.24537 | 1173 ft | 123 kts | 60° |
| 2026-04-18 07:03 | 50.11021 | 14.25394 | 1174 ft | 54 kts | 65° |
| 2026-04-18 07:03 | 50.11124 | 14.25750 | 1167 ft | 32 kts | 73° |
| 2026-04-18 07:03 | 50.11109 | 14.26072 | 1167 ft | 23 kts | 97° |
| 2026-04-18 07:03 | 50.11091 | 14.26295 | 1163 ft | 19 kts | 97° |
| 2026-04-18 07:04 | 50.11056 | 14.26489 | 1169 ft | 19 kts | 126° |
| 2026-04-18 07:04 | 50.10999 | 14.26567 | 1169 ft | 5 kts | 177° |
| 2026-04-18 07:04 | 50.10966 | 14.26545 | 1171 ft | 5 kts | 210° |
| 2026-04-18 07:04 | 50.10954 | 14.26534 | 1169 ft | 0 kts | 212° |